Time;durP1;ratioP1;P1;durP2;ratioP2;P2;SDS_P1;SDS_P2;PMS_P1;PMS_P2;Temp;Humidity;BMP_temperature;BMP_pressure;BME280_temperature;BME280_humidity;BME280_pressure;Samples;Min_cycle;Max_cycle;Signal;HPM_P1;HPM_P2
2021/05/05 00:00:21;;;;;;;11.02;6.43;;;8.50;52.20;;;;;;5156281;27;20030;-75
2021/05/05 00:02:47;;;;;;;13.50;6.72;;;8.50;52.30;;;;;;5137740;27;20099;-75
2021/05/05 00:05:14;;;;;;;11.25;5.68;;;8.50;52.20;;;;;;5156176;27;20035;-75
2021/05/05 00:07:40;;;;;;;15.02;6.97;;;8.50;52.20;;;;;;5156151;27;20022;-74
2021/05/05 00:10:06;;;;;;;11.98;6.57;;;8.50;52.20;;;;;;5155723;27;20441;-74
2021/05/05 00:12:33;;;;;;;10.07;6.18;;;8.50;52.20;;;;;;5137472;27;20054;-74
2021/05/05 00:14:58;;;;;;;13.57;6.75;;;8.50;52.20;;;;;;5155612;27;20064;-75
2021/05/05 00:17:24;;;;;;;13.10;6.00;;;8.50;52.20;;;;;;5155966;27;20031;-75
2021/05/05 00:19:50;;;;;;;7.75;4.97;;;8.50;52.20;;;;;;5137422;27;20022;-75
2021/05/05 00:22:16;;;;;;;8.25;4.93;;;8.50;52.10;;;;;;5155926;27;20022;-74
2021/05/05 00:24:42;;;;;;;7.50;4.68;;;8.60;52.10;;;;;;5155737;27;20027;-74
2021/05/05 00:27:08;;;;;;;8.07;4.53;;;8.60;52.10;;;;;;5136969;27;20037;-75
2021/05/05 00:29:33;;;;;;;7.53;4.28;;;8.60;52.00;;;;;;5155182;27;20035;-75
2021/05/05 00:31:59;;;;;;;7.53;4.65;;;8.60;52.00;;;;;;5154483;27;20528;-75
2021/05/05 00:34:25;;;;;;;10.23;5.30;;;8.60;51.90;;;;;;5155549;27;20466;-75
2021/05/05 00:36:51;;;;;;;9.90;5.13;;;8.60;51.90;;;;;;5137081;27;20023;-74
2021/05/05 00:39:17;;;;;;;8.60;5.13;;;8.60;51.90;;;;;;5155509;27;20058;-75
2021/05/05 00:41:43;;;;;;;8.85;5.25;;;8.60;51.90;;;;;;5155029;27;20051;-75
2021/05/05 00:44:08;;;;;;;8.18;4.50;;;8.70;52.00;;;;;;5155395;27;20102;-75
2021/05/05 00:46:34;;;;;;;7.60;4.88;;;8.70;51.90;;;;;;5155021;27;20087;-75
2021/05/05 00:49:00;;;;;;;9.30;4.97;;;8.70;51.80;;;;;;5155134;27;20023;-75
2021/05/05 00:51:25;;;;;;;14.05;6.10;;;8.70;51.80;;;;;;5155273;27;20452;-75
2021/05/05 00:53:51;;;;;;;9.93;5.35;;;8.70;51.80;;;;;;5151423;27;20065;-75
2021/05/05 00:56:18;;;;;;;11.25;5.90;;;8.70;51.80;;;;;;5144389;27;20033;-75
2021/05/05 00:58:43;;;;;;;10.02;5.20;;;8.70;51.90;;;;;;5143422;27;20023;-75
2021/05/05 01:01:09;;;;;;;8.25;5.10;;;8.70;51.90;;;;;;5142897;27;20160;-76
2021/05/05 01:03:35;;;;;;;9.20;5.38;;;8.70;52.00;;;;;;5145327;27;20353;-74
2021/05/05 01:06:04;;;;;;;9.95;5.43;;;8.70;52.00;;;;;;5143080;27;20481;-75
2021/05/05 01:08:31;;;;;;;7.80;5.20;;;8.70;52.20;;;;;;5142600;27;20027;-76
2021/05/05 01:10:56;;;;;;;8.80;5.68;;;8.70;52.20;;;;;;5142739;27;20030;-75
2021/05/05 01:13:23;;;;;;;11.73;6.00;;;8.70;52.20;;;;;;5143461;27;20022;-75
2021/05/05 01:15:48;;;;;;;9.05;5.55;;;8.70;52.20;;;;;;5144767;27;20032;-75
2021/05/05 01:18:14;;;;;;;9.15;5.13;;;8.70;52.30;;;;;;5142677;27;20033;-74
2021/05/05 01:20:40;;;;;;;11.88;5.30;;;8.70;52.40;;;;;;5126502;27;20071;-75
2021/05/05 01:23:08;;;;;;;6.72;5.03;;;8.70;52.40;;;;;;5145238;27;20023;-75
2021/05/05 01:25:34;;;;;;;11.05;6.40;;;8.70;52.50;;;;;;5144275;27;20066;-76
2021/05/05 01:28:01;;;;;;;8.15;5.70;;;8.70;52.50;;;;;;5146042;27;20106;-75
2021/05/05 01:30:27;;;;;;;8.93;5.70;;;8.70;52.60;;;;;;5143328;27;20401;-76
2021/05/05 01:32:53;;;;;;;10.60;6.07;;;8.60;52.70;;;;;;5142277;27;20023;-75
2021/05/05 01:35:20;;;;;;;9.43;5.50;;;8.70;52.80;;;;;;5143646;27;20034;-75
2021/05/05 01:37:51;;;;;;;8.13;5.35;;;8.60;52.90;;;;;;5125028;27;20022;-75
2021/05/05 01:40:30;;;;;;;14.23;6.50;;;8.60;53.00;;;;;;5142811;27;20023;-75
2021/05/05 01:42:56;;;;;;;9.10;5.50;;;8.50;53.10;;;;;;5142485;27;20071;-75
2021/05/05 01:45:22;;;;;;;12.65;6.03;;;8.50;53.20;;;;;;5129194;27;20023;-75
2021/05/05 01:47:56;;;;;;;9.98;6.22;;;8.50;53.40;;;;;;5148875;27;20084;-76
2021/05/05 01:50:22;;;;;;;9.93;5.57;;;8.40;53.50;;;;;;5147200;27;20027;-76
2021/05/05 01:52:48;;;;;;;7.03;5.05;;;8.40;53.60;;;;;;5147699;27;20429;-76
2021/05/05 01:55:14;;;;;;;10.95;6.20;;;8.40;53.80;;;;;;5146439;27;20115;-76
2021/05/05 01:57:46;;;;;;;12.15;6.47;;;8.40;53.90;;;;;;5129406;27;20056;-78
2021/05/05 02:00:22;;;;;;;8.07;5.85;;;8.40;54.10;;;;;;5147686;27;20051;-81
2021/05/05 02:02:48;;;;;;;10.57;5.85;;;8.30;54.30;;;;;;5129282;27;20110;-75
2021/05/05 02:05:14;;;;;;;10.95;6.22;;;8.30;54.40;;;;;;5146047;27;20412;-75
2021/05/05 02:07:40;;;;;;;8.90;6.15;;;8.30;54.60;;;;;;5128728;27;20328;-76
2021/05/05 02:10:13;;;;;;;10.95;6.40;;;8.30;54.70;;;;;;5128800;27;20136;-75
2021/05/05 02:12:39;;;;;;;8.82;5.85;;;8.30;55.00;;;;;;5140184;27;20023;-75
2021/05/05 02:15:07;;;;;;;13.88;7.68;;;8.30;55.10;;;;;;5137246;27;20471;-75
2021/05/05 02:17:33;;;;;;;14.45;7.55;;;8.20;55.20;;;;;;5137686;27;20100;-75
2021/05/05 02:19:59;;;;;;;12.85;7.43;;;8.20;55.30;;;;;;5150190;27;20030;-75
2021/05/05 02:22:24;;;;;;;13.07;6.95;;;8.20;55.60;;;;;;5158373;27;20384;-75
2021/05/05 02:24:50;;;;;;;11.35;6.80;;;8.20;55.80;;;;;;5157886;27;20039;-74
2021/05/05 02:27:17;;;;;;;13.50;6.95;;;8.20;56.00;;;;;;5157783;27;20031;-74
2021/05/05 02:29:42;;;;;;;15.25;8.05;;;8.20;56.00;;;;;;5139466;27;20523;-75
2021/05/05 02:32:12;;;;;;;13.52;8.00;;;8.20;56.10;;;;;;5139499;27;20118;-75
2021/05/05 02:34:38;;;;;;;13.68;7.80;;;8.20;56.30;;;;;;5157564;27;20479;-74
2021/05/05 02:37:09;;;;;;;11.70;7.15;;;8.20;56.50;;;;;;5135513;27;20031;-74
2021/05/05 02:39:40;;;;;;;13.23;7.75;;;8.30;56.80;;;;;;5119254;27;20372;-75
2021/05/05 02:42:10;;;;;;;11.13;6.63;;;8.30;56.90;;;;;;5137192;27;20074;-75
2021/05/05 02:44:37;;;;;;;14.82;7.80;;;8.40;57.00;;;;;;5156850;27;20535;-75
2021/05/05 02:47:03;;;;;;;11.10;5.80;;;8.40;57.00;;;;;;5157655;27;20325;-75
2021/05/05 02:49:30;;;;;;;12.68;6.82;;;8.40;57.20;;;;;;5157237;27;20030;-75
2021/05/05 02:51:56;;;;;;;13.00;6.70;;;8.40;57.20;;;;;;5138998;27;20025;-75
2021/05/05 02:54:22;;;;;;;11.60;7.07;;;8.50;57.40;;;;;;5156685;27;20031;-75
2021/05/05 02:56:48;;;;;;;10.70;6.50;;;8.50;57.60;;;;;;5156995;27;20163;-73
2021/05/05 02:59:14;;;;;;;12.95;7.68;;;8.50;57.70;;;;;;5157257;27;20022;-74
2021/05/05 03:01:39;;;;;;;13.82;7.63;;;8.50;57.70;;;;;;5157393;27;20091;-74
2021/05/05 03:04:05;;;;;;;9.10;6.60;;;8.50;57.70;;;;;;5157139;27;20436;-74
2021/05/05 03:06:31;;;;;;;10.77;6.75;;;8.60;57.80;;;;;;5157136;27;20119;-74
2021/05/05 03:08:57;;;;;;;10.55;7.03;;;8.60;58.00;;;;;;5157534;27;20106;-74
2021/05/05 03:11:24;;;;;;;11.38;6.45;;;8.60;58.10;;;;;;5156779;27;20031;-74
2021/05/05 03:13:49;;;;;;;10.75;6.70;;;8.60;58.10;;;;;;5157195;27;20444;-74
2021/05/05 03:16:15;;;;;;;10.98;7.10;;;8.70;58.30;;;;;;5157200;27;20027;-74
2021/05/05 03:18:41;;;;;;;9.55;5.97;;;8.70;58.30;;;;;;5156803;27;20019;-75
2021/05/05 03:21:07;;;;;;;13.02;7.15;;;8.70;58.40;;;;;;5156961;27;20376;-74
2021/05/05 03:23:32;;;;;;;15.48;7.20;;;8.70;58.50;;;;;;5156437;27;20371;-75
2021/05/05 03:25:58;;;;;;;12.80;7.00;;;8.80;58.60;;;;;;5138509;27;20030;-75
2021/05/05 03:28:24;;;;;;;12.05;7.10;;;8.80;58.80;;;;;;5157014;27;20034;-75
2021/05/05 03:30:50;;;;;;;13.50;8.05;;;8.80;58.90;;;;;;5156617;27;20031;-74
2021/05/05 03:33:16;;;;;;;11.23;7.53;;;8.90;58.80;;;;;;5156922;27;20058;-75
2021/05/05 03:35:41;;;;;;;11.73;7.00;;;8.90;58.80;;;;;;5156690;27;20387;-76
2021/05/05 03:38:08;;;;;;;11.02;7.95;;;8.90;58.70;;;;;;5156569;27;20102;-75
2021/05/05 03:40:35;;;;;;;11.85;6.90;;;9.00;58.80;;;;;;5156572;27;20027;-75
2021/05/05 03:43:01;;;;;;;12.05;7.18;;;9.00;58.90;;;;;;5157132;27;20050;-75
2021/05/05 03:45:27;;;;;;;10.00;6.63;;;9.00;59.10;;;;;;5156255;27;20080;-75
2021/05/05 03:47:53;;;;;;;9.05;6.65;;;9.00;59.30;;;;;;5137876;27;20026;-75
2021/05/05 03:50:21;;;;;;;15.43;6.57;;;9.10;59.60;;;;;;5156363;27;20091;-74
2021/05/05 03:52:47;;;;;;;14.02;5.95;;;9.20;59.80;;;;;;5156235;27;20067;-75
2021/05/05 03:55:14;;;;;;;30.58;8.52;;;9.20;59.80;;;;;;5156636;27;20491;-75
2021/05/05 03:57:39;;;;;;;26.00;7.70;;;9.40;60.10;;;;;;5156329;27;20027;-75
2021/05/05 04:00:09;;;;;;;17.80;6.75;;;9.40;60.30;;;;;;5155845;27;20465;-75
2021/05/05 04:02:34;;;;;;;23.58;6.80;;;9.50;60.50;;;;;;5156027;27;20072;-75
2021/05/05 04:05:02;;;;;;;13.95;6.55;;;9.50;60.60;;;;;;5155734;27;20031;-74
2021/05/05 04:07:27;;;;;;;14.63;6.75;;;9.60;60.70;;;;;;5155926;27;20504;-78
2021/05/05 04:09:55;;;;;;;10.43;6.28;;;9.70;61.10;;;;;;5155718;27;20027;-76
2021/05/05 04:12:21;;;;;;;8.40;6.28;;;9.80;61.20;;;;;;5155985;27;20022;-75
2021/05/05 04:14:46;;;;;;;12.35;6.32;;;9.80;61.40;;;;;;5155738;27;20019;-75
2021/05/05 04:17:12;;;;;;;12.50;6.90;;;9.90;61.60;;;;;;5156108;27;20034;-76
2021/05/05 04:19:40;;;;;;;12.50;6.63;;;10.00;61.70;;;;;;5136313;27;20396;-76
2021/05/05 04:22:06;;;;;;;7.30;5.68;;;10.10;61.80;;;;;;5155567;27;20030;-76
2021/05/05 04:24:32;;;;;;;12.88;6.60;;;10.20;61.80;;;;;;5155917;27;20350;-76
2021/05/05 04:26:58;;;;;;;7.57;5.60;;;10.20;61.90;;;;;;5154584;27;20018;-76
2021/05/05 04:29:24;;;;;;;11.40;6.03;;;10.30;61.90;;;;;;5155537;27;20544;-76
2021/05/05 04:31:54;;;;;;;7.65;5.70;;;10.40;61.90;;;;;;5155613;27;20035;-76
2021/05/05 04:34:21;;;;;;;10.02;6.28;;;10.50;61.90;;;;;;5156173;27;20465;-76
2021/05/05 04:36:47;;;;;;;7.55;6.15;;;10.60;62.00;;;;;;5156160;27;20115;-75
2021/05/05 04:39:13;;;;;;;13.30;7.03;;;10.70;62.10;;;;;;5153999;27;20075;-78
2021/05/05 04:41:39;;;;;;;6.70;5.50;;;10.80;62.30;;;;;;5147085;27;20047;-75
2021/05/05 04:44:05;;;;;;;7.32;5.15;;;10.90;62.40;;;;;;5144016;27;20023;-76
2021/05/05 04:46:31;;;;;;;9.50;5.63;;;11.00;62.40;;;;;;5144061;27;20023;-76
2021/05/05 04:48:57;;;;;;;9.60;5.65;;;11.10;62.40;;;;;;5145092;27;20019;-75
2021/05/05 04:51:22;;;;;;;8.55;5.47;;;11.20;62.60;;;;;;5148437;27;20027;-75
2021/05/05 04:53:48;;;;;;;8.85;5.20;;;11.40;62.70;;;;;;5148725;27;20111;-75
2021/05/05 04:56:14;;;;;;;13.30;5.60;;;11.50;62.80;;;;;;5146604;27;20032;-75
2021/05/05 04:58:40;;;;;;;7.25;5.50;;;11.60;62.90;;;;;;5140765;27;20030;-74
2021/05/05 05:01:06;;;;;;;15.40;6.13;;;11.70;62.90;;;;;;5134678;27;20027;-75
2021/05/05 05:03:31;;;;;;;8.23;5.28;;;11.80;62.90;;;;;;5131992;27;20459;-76
2021/05/05 05:05:57;;;;;;;13.85;5.68;;;11.90;62.90;;;;;;5145440;27;20031;-77
2021/05/05 05:08:23;;;;;;;7.65;5.50;;;12.00;63.00;;;;;;5145095;27;20503;-76
2021/05/05 05:10:48;;;;;;;9.70;5.38;;;12.20;63.00;;;;;;5142022;27;20025;-76
2021/05/05 05:13:14;;;;;;;8.75;4.72;;;12.30;63.00;;;;;;5147570;27;20034;-75
2021/05/05 05:15:40;;;;;;;6.45;4.93;;;12.60;62.90;;;;;;5143007;27;20068;-75
2021/05/05 05:18:06;;;;;;;4.65;4.22;;;12.80;62.80;;;;;;5147108;27;20029;-75
2021/05/05 05:20:31;;;;;;;9.70;4.50;;;13.00;63.10;;;;;;5143356;27;20407;-78
2021/05/05 05:22:57;;;;;;;6.78;4.78;;;13.30;62.00;;;;;;5143306;27;20101;-75
2021/05/05 05:25:27;;;;;;;5.75;4.43;;;13.60;61.40;;;;;;5145516;27;20123;-76
2021/05/05 05:27:53;;;;;;;7.82;4.60;;;13.80;60.80;;;;;;5136351;27;20019;-75
2021/05/05 05:30:20;;;;;;;11.90;4.53;;;14.00;60.20;;;;;;5133647;27;20085;-75
2021/05/05 05:32:46;;;;;;;5.70;4.20;;;14.20;59.70;;;;;;5142388;27;20050;-75
2021/05/05 05:35:13;;;;;;;6.30;3.85;;;14.30;59.10;;;;;;5154700;27;20034;-75
2021/05/05 05:37:39;;;;;;;4.95;4.43;;;14.50;58.50;;;;;;5154736;27;20026;-76
2021/05/05 05:40:06;;;;;;;5.72;4.35;;;14.60;57.90;;;;;;5128162;27;20444;-75
2021/05/05 05:42:32;;;;;;;7.88;4.55;;;14.60;57.70;;;;;;5151385;27;20099;-81
2021/05/05 05:44:58;;;;;;;6.38;3.85;;;14.60;57.60;;;;;;5153918;27;20451;-75
2021/05/05 05:47:24;;;;;;;4.40;3.20;;;14.70;57.50;;;;;;5142711;27;20103;-75
2021/05/05 05:49:50;;;;;;;5.80;2.95;;;14.80;57.00;;;;;;5139198;27;20054;-74
2021/05/05 05:52:16;;;;;;;6.78;3.40;;;14.80;56.40;;;;;;5150307;27;20027;-78
2021/05/05 05:54:42;;;;;;;4.97;3.53;;;14.80;56.30;;;;;;5153147;27;20027;-75
2021/05/05 05:57:07;;;;;;;5.72;3.22;;;14.80;56.20;;;;;;5153224;27;20073;-76
2021/05/05 05:59:33;;;;;;;5.50;3.20;;;14.70;56.20;;;;;;5134599;27;20030;-80
2021/05/05 06:01:59;;;;;;;8.45;3.83;;;14.70;56.30;;;;;;5153542;27;20447;-77
2021/05/05 06:04:25;;;;;;;5.38;3.95;;;14.70;57.00;;;;;;5153558;27;20023;-77
2021/05/05 06:06:51;;;;;;;6.25;4.57;;;14.70;56.30;;;;;;5133685;28;20058;-74
2021/05/05 06:09:16;;;;;;;10.30;4.85;;;14.70;56.50;;;;;;5132984;28;20157;-75
2021/05/05 06:11:42;;;;;;;10.25;4.57;;;14.70;56.50;;;;;;5145738;27;20037;-75
2021/05/05 06:14:08;;;;;;;8.20;5.55;;;14.70;56.60;;;;;;5153651;27;20024;-76
2021/05/05 06:16:34;;;;;;;9.93;5.57;;;14.80;56.80;;;;;;5153645;27;20030;-75
2021/05/05 06:19:00;;;;;;;9.75;5.10;;;14.90;56.80;;;;;;5153542;27;20083;-76
2021/05/05 06:21:26;;;;;;;11.82;4.70;;;14.90;56.70;;;;;;5150287;27;20035;-76
2021/05/05 06:23:52;;;;;;;7.25;4.60;;;15.00;56.70;;;;;;5141846;27;20091;-77
2021/05/05 06:26:18;;;;;;;13.80;5.78;;;15.00;56.70;;;;;;5139767;27;20172;-76
2021/05/05 06:28:44;;;;;;;7.35;4.55;;;15.00;56.80;;;;;;5133622;27;20456;-76
2021/05/05 06:31:10;;;;;;;5.72;4.47;;;15.10;56.90;;;;;;5155780;27;20023;-76
2021/05/05 06:33:36;;;;;;;6.90;4.28;;;15.20;57.00;;;;;;5151339;27;20022;-77
2021/05/05 06:36:02;;;;;;;8.30;4.57;;;15.30;56.90;;;;;;5147081;27;20031;-76
2021/05/05 06:38:28;;;;;;;5.85;5.15;;;15.30;56.70;;;;;;5145777;27;20031;-75
2021/05/05 06:40:54;;;;;;;11.88;5.22;;;15.40;56.70;;;;;;5142413;27;20076;-76
2021/05/05 06:43:20;;;;;;;8.90;5.28;;;15.50;56.70;;;;;;5155326;27;20027;-77
2021/05/05 06:45:46;;;;;;;13.23;6.00;;;15.50;56.70;;;;;;5157474;27;20452;-75
2021/05/05 06:48:11;;;;;;;5.78;3.60;;;15.60;56.60;;;;;;5157199;27;20080;-75
2021/05/05 06:50:37;;;;;;;5.57;3.38;;;15.70;56.50;;;;;;5152661;27;20030;-78
2021/05/05 06:53:03;;;;;;;10.43;3.70;;;15.80;56.30;;;;;;5154773;27;20361;-74
2021/05/05 06:55:29;;;;;;;4.85;3.28;;;15.80;56.20;;;;;;5155356;27;20050;-74
2021/05/05 06:57:55;;;;;;;9.32;3.38;;;15.80;56.20;;;;;;5153904;27;20034;-76
2021/05/05 07:00:21;;;;;;;8.32;3.90;;;15.80;56.00;;;;;;5156415;27;20051;-76
2021/05/05 07:02:47;;;;;;;5.78;3.30;;;15.90;55.90;;;;;;5156929;27;20027;-76
2021/05/05 07:05:13;;;;;;;6.53;3.90;;;15.90;55.80;;;;;;5155385;27;20444;-76
2021/05/05 07:07:40;;;;;;;5.88;3.70;;;16.00;55.90;;;;;;5156782;27;20023;-76
2021/05/05 07:10:08;;;;;;;6.75;4.18;;;16.00;55.90;;;;;;5156589;27;20406;-76
2021/05/05 07:12:33;;;;;;;8.27;3.42;;;16.10;55.90;;;;;;5156588;27;20486;-75
2021/05/05 07:14:59;;;;;;;10.35;3.40;;;16.20;55.70;;;;;;5155300;27;20035;-76
2021/05/05 07:17:25;;;;;;;5.88;3.30;;;16.30;55.50;;;;;;5156805;27;20485;-75
2021/05/05 07:19:51;;;;;;;4.55;3.30;;;16.40;55.40;;;;;;5152754;27;20027;-75
2021/05/05 07:22:17;;;;;;;5.82;3.17;;;16.40;55.10;;;;;;5147958;27;20109;-75
2021/05/05 07:24:43;;;;;;;4.07;3.15;;;16.40;55.00;;;;;;5122248;27;20473;-76
2021/05/05 07:27:09;;;;;;;7.47;3.47;;;16.60;55.10;;;;;;5143595;27;20035;-80
2021/05/05 07:29:35;;;;;;;9.48;3.30;;;16.70;54.90;;;;;;5135811;27;20025;-78
2021/05/05 07:32:01;;;;;;;6.78;3.50;;;16.80;54.80;;;;;;5154665;27;20026;-78
2021/05/05 07:34:27;;;;;;;4.55;2.92;;;16.90;54.50;;;;;;5142834;27;20023;-78
2021/05/05 07:36:58;;;;;;;5.07;3.00;;;17.00;54.20;;;;;;5142610;27;20023;-77
2021/05/05 07:47:54;;;;;;;6.47;3.95;;;17.40;53.30;;;;;;5050679;28;20047;-78
2021/05/05 07:50:19;;;;;;;7.55;3.63;;;17.50;53.20;;;;;;5050899;28;20033;-79
2021/05/05 07:52:45;;;;;;;6.32;2.80;;;17.70;52.90;;;;;;5050210;28;20032;-79
2021/05/05 07:55:11;;;;;;;4.35;2.20;;;17.80;52.10;;;;;;5064684;27;20548;-79
2021/05/05 07:57:40;;;;;;;5.35;2.78;;;18.00;51.80;;;;;;5143810;27;20054;-79
2021/05/05 08:00:07;;;;;;;8.95;2.40;;;18.10;51.60;;;;;;5144735;27;20091;-76
2021/05/05 08:02:33;;;;;;;7.80;2.60;;;18.40;51.00;;;;;;5145066;27;20042;-76
2021/05/05 08:04:58;;;;;;;6.07;2.67;;;18.50;50.30;;;;;;5128635;27;20527;-78
2021/05/05 08:07:24;;;;;;;4.88;2.65;;;18.70;50.00;;;;;;5145097;27;20022;-78
2021/05/05 08:09:50;;;;;;;8.05;2.72;;;18.90;50.00;;;;;;5145089;27;20055;-77
2021/05/05 08:12:16;;;;;;;4.65;2.92;;;19.10;49.60;;;;;;5142241;27;20439;-76
2021/05/05 08:14:43;;;;;;;6.35;2.72;;;19.40;49.00;;;;;;5145021;27;20023;-77
2021/05/05 08:17:09;;;;;;;6.55;2.78;;;19.70;48.50;;;;;;5143913;27;20372;-75
2021/05/05 08:19:36;;;;;;;2.72;2.00;;;20.00;48.10;;;;;;5145221;27;20448;-77
2021/05/05 08:22:02;;;;;;;3.33;2.55;;;20.30;47.10;;;;;;5143393;27;20051;-76
2021/05/05 08:24:28;;;;;;;6.68;2.63;;;20.60;46.80;;;;;;5143296;27;20026;-79
2021/05/05 08:26:58;;;;;;;7.35;2.55;;;20.70;46.30;;;;;;5124362;27;20023;-78
2021/05/05 08:29:28;;;;;;;5.20;1.88;;;20.90;45.60;;;;;;5140801;27;20079;-78
2021/05/05 08:31:54;;;;;;;4.63;2.10;;;21.10;45.20;;;;;;5145018;27;20014;-76
2021/05/05 08:34:20;;;;;;;4.45;2.20;;;21.30;44.70;;;;;;5144619;27;20023;-77
2021/05/05 08:36:46;;;;;;;8.38;2.72;;;21.40;44.20;;;;;;5142998;27;20046;-78
2021/05/05 08:39:11;;;;;;;5.22;2.40;;;21.70;44.20;;;;;;5144956;27;20030;-77
2021/05/05 08:41:38;;;;;;;7.95;2.50;;;21.80;43.80;;;;;;5122109;27;20044;-78
2021/05/05 08:44:09;;;;;;;15.68;2.90;;;21.80;43.60;;;;;;5122732;27;20070;-78
2021/05/05 08:46:38;;;;;;;5.80;2.50;;;21.90;43.50;;;;;;5117048;27;20036;-78
2021/05/05 08:49:04;;;;;;;5.78;2.55;;;21.80;43.20;;;;;;5114218;28;20049;-77
2021/05/05 08:51:30;;;;;;;8.38;2.70;;;21.70;43.40;;;;;;5124495;27;20031;-75
2021/05/05 08:53:56;;;;;;;7.90;2.80;;;21.60;43.60;;;;;;5133282;27;20015;-77
2021/05/05 08:56:22;;;;;;;7.45;2.90;;;21.60;43.60;;;;;;5130509;27;20039;-79
2021/05/05 08:58:47;;;;;;;5.45;2.85;;;21.80;43.40;;;;;;5134007;27;20057;-79
2021/05/05 09:01:14;;;;;;;5.53;2.92;;;22.00;43.20;;;;;;5134563;27;20023;-79
2021/05/05 09:03:43;;;;;;;5.05;3.10;;;22.00;43.00;;;;;;5134873;27;20468;-78
2021/05/05 09:06:09;;;;;;;7.50;2.35;;;21.90;42.90;;;;;;5134742;27;20114;-78
2021/05/05 09:08:35;;;;;;;8.98;3.08;;;21.80;43.00;;;;;;5134270;27;20027;-75
2021/05/05 09:11:10;;;;;;;9.15;2.78;;;22.10;42.90;;;;;;5133301;27;20042;-75
2021/05/05 09:13:47;;;;;;;12.43;2.85;;;22.20;42.50;;;;;;5134913;27;20037;-75
2021/05/05 09:16:15;;;;;;;13.75;3.13;;;22.30;42.30;;;;;;5133587;27;20130;-76
2021/05/05 09:19:00;;;;;;;4.95;2.65;;;22.80;42.50;;;;;;5131006;27;20464;-76
2021/05/05 09:21:28;;;;;;;6.70;3.40;;;24.00;41.70;;;;;;5126701;27;20042;-75
2021/05/05 09:24:16;;;;;;;7.03;2.50;;;24.70;40.70;;;;;;5134413;27;20118;-78
2021/05/05 09:26:42;;;;;;;7.60;2.63;;;25.60;39.40;;;;;;5134405;27;20105;-80
2021/05/05 09:29:08;;;;;;;8.25;2.60;;;25.50;38.40;;;;;;5133442;27;20062;-78
2021/05/05 09:31:36;;;;;;;6.18;2.85;;;25.40;38.40;;;;;;5134082;27;20105;-76
2021/05/05 09:34:03;;;;;;;7.80;2.80;;;26.00;38.30;;;;;;5127748;27;20032;-76
2021/05/05 09:36:30;;;;;;;9.82;3.13;;;26.60;37.40;;;;;;5113680;28;20042;-77
2021/05/05 09:38:56;;;;;;;17.55;3.13;;;27.10;36.80;;;;;;5121735;28;20464;-77
2021/05/05 09:41:28;;;;;;;13.55;2.67;;;27.40;35.90;;;;;;5138818;27;20495;-76
2021/05/05 09:44:14;;;;;;;7.85;2.63;;;27.40;35.60;;;;;;5150033;27;20023;-76
2021/05/05 09:46:43;;;;;;;4.90;2.33;;;27.10;35.40;;;;;;5144566;27;20038;-76
2021/05/05 09:49:35;;;;;;;3.78;2.72;;;26.70;35.50;;;;;;5142918;27;20461;-76
2021/05/05 09:52:08;;;;;;;12.10;3.00;;;26.70;35.90;;;;;;5144103;27;20031;-76
2021/05/05 09:54:53;;;;;;;5.05;2.70;;;27.20;35.90;;;;;;5142979;27;20031;-75
2021/05/05 09:57:26;;;;;;;17.40;3.17;;;28.00;35.40;;;;;;5144544;27;20391;-77
2021/05/05 10:00:06;;;;;;;6.95;2.35;;;28.60;34.50;;;;;;5144140;27;20105;-76
2021/05/05 10:02:44;;;;;;;13.70;3.28;;;28.70;33.90;;;;;;5126246;27;20030;-76
2021/05/05 10:05:13;;;;;;;5.65;2.42;;;27.90;33.80;;;;;;5144968;27;20444;-76
2021/05/05 10:07:59;;;;;;;8.15;2.80;;;26.90;34.60;;;;;;5145934;27;20443;-76
2021/05/05 10:10:29;;;;;;;7.32;2.60;;;26.10;35.40;;;;;;5155858;27;20023;-76
2021/05/05 10:12:57;;;;;;;3.55;2.50;;;25.70;36.10;;;;;;5158775;27;20440;-76
2021/05/05 10:15:26;;;;;;;7.55;2.75;;;26.20;36.10;;;;;;5158599;27;20037;-75
2021/05/05 10:17:52;;;;;;;6.40;2.58;;;26.80;35.70;;;;;;5150423;27;20164;-76
2021/05/05 10:20:24;;;;;;;4.65;2.22;;;26.80;35.00;;;;;;5120041;27;20031;-76
2021/05/05 10:22:59;;;;;;;5.18;2.60;;;26.50;35.20;;;;;;5148455;27;20049;-76
2021/05/05 10:25:26;;;;;;;6.05;2.30;;;26.40;35.70;;;;;;5158624;27;20082;-75
2021/05/05 10:27:52;;;;;;;7.97;2.67;;;26.80;35.90;;;;;;5158070;27;20096;-76
2021/05/05 10:30:28;;;;;;;9.70;2.55;;;27.40;35.40;;;;;;5157685;27;20030;-76
2021/05/05 10:32:54;;;;;;;4.22;2.15;;;27.30;35.00;;;;;;5138504;27;20357;-76
2021/05/05 10:35:22;;;;;;;7.03;2.40;;;27.30;35.20;;;;;;5145565;27;20072;-76
2021/05/05 10:38:00;;;;;;;9.45;3.00;;;27.30;35.20;;;;;;5129367;27;20042;-75
2021/05/05 10:40:33;;;;;;;7.07;2.65;;;27.00;34.60;;;;;;5151436;27;20418;-78
2021/05/05 10:42:58;;;;;;;11.68;2.78;;;26.30;35.10;;;;;;5146071;27;20049;-77
2021/05/05 10:45:36;;;;;;;3.92;2.58;;;26.00;35.60;;;;;;5147437;27;20018;-75
2021/05/05 10:48:28;;;;;;;7.20;2.70;;;26.00;35.90;;;;;;5147718;27;20110;-78
2021/05/05 10:50:58;;;;;;;4.25;2.58;;;25.90;36.40;;;;;;5141712;27;20031;-77
2021/05/05 10:53:39;;;;;;;2.45;2.17;;;26.20;36.40;;;;;;5145415;27;20388;-77
2021/05/05 10:56:23;;;;;;;8.00;2.70;;;26.20;36.40;;;;;;5145323;27;20030;-76
2021/05/05 10:58:59;;;;;;;15.63;2.40;;;27.10;36.20;;;;;;5147302;27;20011;-77
2021/05/05 11:01:37;;;;;;;5.57;2.47;;;27.80;35.00;;;;;;5146760;27;20384;-77
2021/05/05 11:04:04;;;;;;;7.63;2.50;;;27.70;34.30;;;;;;5128397;27;20035;-77
2021/05/05 11:06:30;;;;;;;3.20;2.22;;;26.90;34.50;;;;;;5144569;27;20375;-78
2021/05/05 11:09:17;;;;;;;5.78;2.40;;;26.60;35.30;;;;;;5136673;27;20024;-76
2021/05/05 11:11:45;;;;;;;6.50;2.28;;;26.80;35.40;;;;;;5118288;27;20106;-76
2021/05/05 11:14:23;;;;;;;2.75;1.98;;;27.20;34.70;;;;;;5136833;27;20054;-77
2021/05/05 11:16:55;;;;;;;5.75;2.45;;;26.90;34.40;;;;;;5135913;27;20112;-77
2021/05/05 11:19:50;;;;;;;8.93;2.63;;;26.60;34.60;;;;;;5146893;27;20023;-76
2021/05/05 11:22:19;;;;;;;9.65;2.60;;;26.50;35.10;;;;;;5129891;27;20042;-77
2021/05/05 11:24:51;;;;;;;5.75;2.35;;;26.50;35.40;;;;;;5157340;27;20029;-76
2021/05/05 11:27:38;;;;;;;7.00;2.88;;;26.40;35.20;;;;;;5157289;27;20460;-76
2021/05/05 11:30:30;;;;;;;7.18;2.20;;;26.50;35.70;;;;;;5157113;27;20027;-76
2021/05/05 11:32:56;;;;;;;5.10;2.40;;;27.30;35.30;;;;;;5138531;27;20022;-76
2021/05/05 11:35:31;;;;;;;9.35;2.53;;;27.40;34.70;;;;;;5156744;27;20472;-76
2021/05/05 11:38:23;;;;;;;4.82;2.20;;;27.70;34.50;;;;;;5157111;27;20095;-76
2021/05/05 11:40:57;;;;;;;8.23;2.50;;;27.90;33.90;;;;;;5156734;27;20023;-77
2021/05/05 11:43:26;;;;;;;8.60;3.60;;;27.70;33.60;;;;;;5157320;27;20027;-76
2021/05/05 11:45:58;;;;;;;6.00;2.45;;;27.70;34.10;;;;;;5156933;27;20031;-77
2021/05/05 11:48:32;;;;;;;5.88;2.28;;;28.10;34.00;;;;;;5156708;27;20029;-76
2021/05/05 11:50:59;;;;;;;5.47;2.17;;;28.20;33.60;;;;;;5156837;27;20018;-77
2021/05/05 11:53:32;;;;;;;4.03;2.20;;;27.60;33.20;;;;;;5156670;27;20027;-77
2021/05/05 11:55:58;;;;;;;7.72;2.65;;;26.90;33.70;;;;;;5154716;27;20408;-76
2021/05/05 11:58:24;;;;;;;6.80;2.70;;;26.40;34.70;;;;;;5155988;27;20103;-76
2021/05/05 12:00:51;;;;;;;5.38;2.78;;;26.70;35.10;;;;;;5156471;27;20058;-78
2021/05/05 12:03:23;;;;;;;8.77;2.58;;;27.30;35.20;;;;;;5151783;27;20384;-76
2021/05/05 12:05:48;;;;;;;10.63;2.55;;;28.20;34.80;;;;;;5128498;27;20031;-78
2021/05/05 12:08:19;;;;;;;15.23;2.33;;;28.60;34.10;;;;;;5146828;27;20023;-78
2021/05/05 12:10:46;;;;;;;4.05;1.90;;;28.20;33.40;;;;;;5154472;27;20034;-76
2021/05/05 12:13:16;;;;;;;2.92;2.10;;;27.30;33.50;;;;;;5156464;27;20581;-77
2021/05/05 12:16:07;;;;;;;5.65;2.25;;;26.40;34.20;;;;;;5156583;27;20121;-77
2021/05/05 12:18:39;;;;;;;8.05;3.72;;;25.60;35.10;;;;;;5146538;27;20045;-77
2021/05/05 12:21:20;;;;;;;5.60;2.42;;;25.00;36.00;;;;;;5156555;27;20030;-76
2021/05/05 12:23:48;;;;;;;8.63;2.42;;;24.80;36.60;;;;;;5143032;27;20560;-76
2021/05/05 12:26:15;;;;;;;6.38;2.38;;;25.00;36.70;;;;;;5141322;27;20031;-77
2021/05/05 12:28:41;;;;;;;11.32;2.78;;;25.20;36.70;;;;;;5141104;27;20046;-81
2021/05/05 12:31:07;;;;;;;4.88;2.90;;;25.20;36.50;;;;;;5143206;27;20522;-79
2021/05/05 12:33:41;;;;;;;4.28;2.10;;;25.10;36.30;;;;;;5154731;27;20031;-80
2021/05/05 12:36:10;;;;;;;4.75;2.55;;;24.70;36.30;;;;;;5151200;27;20037;-80
2021/05/05 12:38:39;;;;;;;15.63;2.75;;;24.20;36.70;;;;;;5145591;27;20053;-76
2021/05/05 12:41:11;;;;;;;6.57;2.70;;;23.90;37.30;;;;;;5134804;27;20027;-76
2021/05/05 12:43:37;;;;;;;9.43;2.60;;;23.50;37.80;;;;;;5135095;27;20088;-76
2021/05/05 12:46:04;;;;;;;4.75;2.67;;;23.30;38.10;;;;;;5117855;27;20030;-76
2021/05/05 12:48:36;;;;;;;5.00;2.53;;;23.10;38.40;;;;;;5145538;27;20027;-76
2021/05/05 12:51:13;;;;;;;4.35;2.38;;;22.90;38.80;;;;;;5148671;27;20023;-75
2021/05/05 12:54:01;;;;;;;14.25;3.15;;;22.80;39.10;;;;;;5141986;27;20030;-76
2021/05/05 12:56:43;;;;;;;6.30;2.42;;;22.90;39.30;;;;;;5142400;27;20031;-75
2021/05/05 12:59:12;;;;;;;6.15;2.60;;;23.00;39.20;;;;;;5142223;27;20031;-77
2021/05/05 13:01:38;;;;;;;4.55;2.30;;;23.40;39.00;;;;;;5142260;27;20468;-76